sensor_id;sensor_type;location;lat;lon;timestamp;pressure;altitude;pressure_sealevel;temperature;humidity
10510;BME280;5303;53.266;10.410;2023-12-29T00:00:42;100237.22;;;9.77;100.00
10510;BME280;5303;53.266;10.410;2023-12-29T00:03:08;100231.09;;;9.77;100.00
10510;BME280;5303;53.266;10.410;2023-12-29T00:05:33;100220.56;;;9.75;100.00
10510;BME280;5303;53.266;10.410;2023-12-29T00:07:58;100208.31;;;9.70;100.00
10510;BME280;5303;53.266;10.410;2023-12-29T00:10:23;100191.50;;;9.85;100.00
10510;BME280;5303;53.266;10.410;2023-12-29T00:12:49;100216.16;;;9.77;100.00
10510;BME280;5303;53.266;10.410;2023-12-29T00:15:17;100226.66;;;9.84;100.00
10510;BME280;5303;53.266;10.410;2023-12-29T00:17:43;100218.75;;;9.80;100.00
10510;BME280;5303;53.266;10.410;2023-12-29T00:20:08;100203.75;;;9.92;100.00
10510;BME280;5303;53.266;10.410;2023-12-29T00:22:34;100214.31;;;9.86;100.00
10510;BME280;5303;53.266;10.410;2023-12-29T00:24:59;100211.75;;;9.82;100.00
10510;BME280;5303;53.266;10.410;2023-12-29T00:27:24;100208.22;;;9.82;100.00
10510;BME280;5303;53.266;10.410;2023-12-29T00:29:50;100206.47;;;9.82;100.00
10510;BME280;5303;53.266;10.410;2023-12-29T00:32:15;100193.34;;;9.76;100.00
10510;BME280;5303;53.266;10.410;2023-12-29T00:34:40;100190.66;;;9.79;100.00
10510;BME280;5303;53.266;10.410;2023-12-29T00:37:05;100191.44;;;9.91;100.00
10510;BME280;5303;53.266;10.410;2023-12-29T00:39:31;100197.59;;;9.91;100.00
10510;BME280;5303;53.266;10.410;2023-12-29T00:42:04;100190.63;;;9.84;100.00
10510;BME280;5303;53.266;10.410;2023-12-29T00:44:29;100182.63;;;9.95;100.00
10510;BME280;5303;53.266;10.410;2023-12-29T00:46:54;100169.44;;;9.95;100.00
10510;BME280;5303;53.266;10.410;2023-12-29T00:49:19;100180.94;;;9.88;100.00
10510;BME280;5303;53.266;10.410;2023-12-29T00:51:47;100179.16;;;9.90;100.00
10510;BME280;5303;53.266;10.410;2023-12-29T00:54:12;100171.19;;;9.96;100.00
10510;BME280;5303;53.266;10.410;2023-12-29T00:56:37;100166.84;;;9.92;100.00
10510;BME280;5303;53.266;10.410;2023-12-29T00:59:02;100151.91;;;9.91;100.00
10510;BME280;5303;53.266;10.410;2023-12-29T01:01:28;100161.69;;;9.82;100.00
10510;BME280;5303;53.266;10.410;2023-12-29T01:03:53;100164.38;;;9.76;100.00
10510;BME280;5303;53.266;10.410;2023-12-29T01:06:20;100156.47;;;9.76;100.00
10510;BME280;5303;53.266;10.410;2023-12-29T01:08:45;100154.69;;;9.78;100.00
10510;BME280;5303;53.266;10.410;2023-12-29T01:11:10;100163.56;;;9.71;100.00
10510;BME280;5303;53.266;10.410;2023-12-29T01:13:35;100167.09;;;9.66;100.00
10510;BME280;5303;53.266;10.410;2023-12-29T01:16:01;100153.97;;;9.63;100.00
10510;BME280;5303;53.266;10.410;2023-12-29T01:18:26;100163.59;;;9.65;100.00
10510;BME280;5303;53.266;10.410;2023-12-29T01:20:51;100156.56;;;9.67;100.00
10510;BME280;5303;53.266;10.410;2023-12-29T01:23:16;100154.94;;;9.54;100.00
10510;BME280;5303;53.266;10.410;2023-12-29T01:25:43;100162.88;;;9.51;100.00
10510;BME280;5303;53.266;10.410;2023-12-29T01:28:08;100144.44;;;9.52;100.00
10510;BME280;5303;53.266;10.410;2023-12-29T01:30:33;100166.31;;;9.56;100.00
10510;BME280;5303;53.266;10.410;2023-12-29T01:32:59;100162.88;;;9.51;100.00
10510;BME280;5303;53.266;10.410;2023-12-29T01:35:24;100161.03;;;9.58;100.00
10510;BME280;5303;53.266;10.410;2023-12-29T01:37:49;100146.06;;;9.64;100.00
10510;BME280;5303;53.266;10.410;2023-12-29T01:40:15;100144.28;;;9.66;100.00
10510;BME280;5303;53.266;10.410;2023-12-29T01:42:41;100145.97;;;9.73;100.00
10510;BME280;5303;53.266;10.410;2023-12-29T01:45:23;100134.56;;;9.70;100.00
10510;BME280;5303;53.266;10.410;2023-12-29T01:47:52;100143.28;;;9.76;100.00
10510;BME280;5303;53.266;10.410;2023-12-29T01:50:22;100149.50;;;9.72;100.00
10510;BME280;5303;53.266;10.410;2023-12-29T01:52:49;100145.88;;;9.79;100.00
10510;BME280;5303;53.266;10.410;2023-12-29T01:55:18;100123.88;;;9.87;100.00
10510;BME280;5303;53.266;10.410;2023-12-29T01:57:44;100125.56;;;9.91;100.00
10510;BME280;5303;53.266;10.410;2023-12-29T02:00:11;100110.63;;;9.93;100.00
10510;BME280;5303;53.266;10.410;2023-12-29T02:02:36;100133.47;;;9.94;100.00
10510;BME280;5303;53.266;10.410;2023-12-29T02:05:02;100122.91;;;9.94;100.00
10510;BME280;5303;53.266;10.410;2023-12-29T02:07:27;100116.78;;;9.90;100.00
10510;BME280;5303;53.266;10.410;2023-12-29T02:09:56;100129.97;;;9.89;100.00
10510;BME280;5303;53.266;10.410;2023-12-29T02:12:22;100135.25;;;9.89;100.00
10510;BME280;5303;53.266;10.410;2023-12-29T02:14:47;100120.28;;;9.91;100.00
10510;BME280;5303;53.266;10.410;2023-12-29T02:17:22;100121.28;;;9.80;100.00
10510;BME280;5303;53.266;10.410;2023-12-29T02:19:51;100130.09;;;9.79;100.00
10510;BME280;5303;53.266;10.410;2023-12-29T02:22:17;100128.47;;;9.66;100.00
10510;BME280;5303;53.266;10.410;2023-12-29T02:24:46;100122.28;;;9.72;100.00
10510;BME280;5303;53.266;10.410;2023-12-29T02:27:43;100137.31;;;9.59;100.00
10510;BME280;5303;53.266;10.410;2023-12-29T02:33:01;100140.06;;;9.51;100.00
10510;BME280;5303;53.266;10.410;2023-12-29T02:35:32;100122.50;;;9.50;100.00
10510;BME280;5303;53.266;10.410;2023-12-29T02:37:59;100126.06;;;9.45;100.00
10510;BME280;5303;53.266;10.410;2023-12-29T02:40:25;100118.19;;;9.42;100.00
10510;BME280;5303;53.266;10.410;2023-12-29T02:42:50;100115.56;;;9.43;100.00
10510;BME280;5303;53.266;10.410;2023-12-29T02:45:16;100116.41;;;9.44;100.00
10510;BME280;5303;53.266;10.410;2023-12-29T02:47:42;100121.66;;;9.47;100.00
10510;BME280;5303;53.266;10.410;2023-12-29T02:50:08;100117.31;;;9.43;100.00
10510;BME280;5303;53.266;10.410;2023-12-29T02:52:33;100129.53;;;9.47;100.00
10510;BME280;5303;53.266;10.410;2023-12-29T02:54:59;100097.16;;;9.40;100.00
10510;BME280;5303;53.266;10.410;2023-12-29T02:57:24;100102.50;;;9.30;100.00
10510;BME280;5303;53.266;10.410;2023-12-29T02:59:49;100107.75;;;9.30;100.00
10510;BME280;5303;53.266;10.410;2023-12-29T03:02:14;100111.28;;;9.29;100.00
10510;BME280;5303;53.266;10.410;2023-12-29T03:04:40;100106.91;;;9.28;100.00
10510;BME280;5303;53.266;10.410;2023-12-29T03:07:05;100112.25;;;9.21;100.00
10510;BME280;5303;53.266;10.410;2023-12-29T03:09:31;100097.38;;;9.14;100.00
10510;BME280;5303;53.266;10.410;2023-12-29T03:11:56;100106.97;;;9.23;100.00
10510;BME280;5303;53.266;10.410;2023-12-29T03:14:21;100097.44;;;9.10;100.00
10510;BME280;5303;53.266;10.410;2023-12-29T03:16:47;100093.09;;;9.03;100.00
10510;BME280;5303;53.266;10.410;2023-12-29T03:19:12;100088.81;;;8.91;100.00
10510;BME280;5303;53.266;10.410;2023-12-29T03:21:37;100080.13;;;8.83;100.00
10510;BME280;5303;53.266;10.410;2023-12-29T03:24:03;100082.75;;;8.83;100.00
10510;BME280;5303;53.266;10.410;2023-12-29T03:26:28;100088.00;;;8.83;100.00
10510;BME280;5303;53.266;10.410;2023-12-29T03:28:54;100079.28;;;8.79;100.00
10510;BME280;5303;53.266;10.410;2023-12-29T03:31:19;100073.16;;;8.79;100.00
10510;BME280;5303;53.266;10.410;2023-12-29T03:33:45;100065.25;;;8.76;100.00
10510;BME280;5303;53.266;10.410;2023-12-29T03:36:10;100066.13;;;8.81;100.00
10510;BME280;5303;53.266;10.410;2023-12-29T03:38:35;100060.81;;;8.84;100.00
10510;BME280;5303;53.266;10.410;2023-12-29T03:41:02;100061.66;;;8.89;100.00
10510;BME280;5303;53.266;10.410;2023-12-29T03:43:27;100073.13;;;8.80;100.00
10510;BME280;5303;53.266;10.410;2023-12-29T03:45:52;100064.44;;;8.68;100.00
10510;BME280;5303;53.266;10.410;2023-12-29T03:48:18;100056.56;;;8.66;100.00
10510;BME280;5303;53.266;10.410;2023-12-29T03:50:43;100050.34;;;8.79;100.00
10510;BME280;5303;53.266;10.410;2023-12-29T03:53:08;100052.06;;;8.82;100.00
10510;BME280;5303;53.266;10.410;2023-12-29T03:55:34;100059.03;;;8.86;100.00
10510;BME280;5303;53.266;10.410;2023-12-29T03:57:59;100049.44;;;8.83;100.00
10510;BME280;5303;53.266;10.410;2023-12-29T04:00:25;100057.38;;;8.76;100.00
10510;BME280;5303;53.266;10.410;2023-12-29T04:02:50;100055.69;;;8.69;100.00
10510;BME280;5303;53.266;10.410;2023-12-29T04:05:16;100031.13;;;8.71;100.00
10510;BME280;5303;53.266;10.410;2023-12-29T04:07:41;100025.84;;;8.73;100.00
10510;BME280;5303;53.266;10.410;2023-12-29T04:10:08;100056.53;;;8.72;100.00
10510;BME280;5303;53.266;10.410;2023-12-29T04:12:34;100059.16;;;8.74;100.00
10510;BME280;5303;53.266;10.410;2023-12-29T04:14:59;100040.78;;;8.66;100.00
10510;BME280;5303;53.266;10.410;2023-12-29T04:17:24;100030.28;;;8.64;100.00
10510;BME280;5303;53.266;10.410;2023-12-29T04:19:50;100018.88;;;8.69;100.00
10510;BME280;5303;53.266;10.410;2023-12-29T04:22:15;100019.88;;;8.52;100.00
10510;BME280;5303;53.266;10.410;2023-12-29T04:24:40;99990.97;;;8.51;100.00
10510;BME280;5303;53.266;10.410;2023-12-29T04:27:06;99991.78;;;8.57;100.00
10510;BME280;5303;53.266;10.410;2023-12-29T04:29:31;100009.34;;;8.54;100.00
10510;BME280;5303;53.266;10.410;2023-12-29T04:31:56;99994.41;;;8.59;100.00
10510;BME280;5303;53.266;10.410;2023-12-29T04:34:21;100008.44;;;8.59;100.00
10510;BME280;5303;53.266;10.410;2023-12-29T04:36:47;100000.50;;;8.62;100.00
10510;BME280;5303;53.266;10.410;2023-12-29T04:39:12;100006.66;;;8.61;100.00
10510;BME280;5303;53.266;10.410;2023-12-29T04:41:37;100011.00;;;8.65;100.00
10510;BME280;5303;53.266;10.410;2023-12-29T04:44:03;100100.38;;;8.70;100.00
10510;BME280;5303;53.266;10.410;2023-12-29T04:46:28;100169.78;;;8.29;100.00
10510;BME280;5303;53.266;10.410;2023-12-29T04:48:53;100172.31;;;6.05;100.00
10510;BME280;5303;53.266;10.410;2023-12-29T04:51:19;100151.63;;;5.15;100.00
10510;BME280;5303;53.266;10.410;2023-12-29T04:53:45;100124.38;;;4.89;100.00
10510;BME280;5303;53.266;10.410;2023-12-29T04:56:10;100127.84;;;4.82;100.00
10510;BME280;5303;53.266;10.410;2023-12-29T04:58:37;100124.38;;;4.84;100.00
10510;BME280;5303;53.266;10.410;2023-12-29T05:01:02;100121.81;;;4.92;100.00
10510;BME280;5303;53.266;10.410;2023-12-29T05:03:27;100134.03;;;4.95;100.00
10510;BME280;5303;53.266;10.410;2023-12-29T05:05:53;100141.94;;;5.01;100.00
10510;BME280;5303;53.266;10.410;2023-12-29T05:08:18;100148.09;;;5.10;100.00
10510;BME280;5303;53.266;10.410;2023-12-29T05:10:43;100166.50;;;5.21;100.00
10510;BME280;5303;53.266;10.410;2023-12-29T05:13:08;100166.53;;;5.27;100.00
10510;BME280;5303;53.266;10.410;2023-12-29T05:15:34;100157.84;;;5.31;100.00
10510;BME280;5303;53.266;10.410;2023-12-29T05:17:59;100153.53;;;5.35;100.00
10510;BME280;5303;53.266;10.410;2023-12-29T05:20:24;100151.81;;;5.40;100.00
10510;BME280;5303;53.266;10.410;2023-12-29T05:22:49;100151.81;;;5.40;100.00
10510;BME280;5303;53.266;10.410;2023-12-29T05:25:15;100158.03;;;5.53;100.00
10510;BME280;5303;53.266;10.410;2023-12-29T05:27:40;100158.03;;;5.53;100.00
10510;BME280;5303;53.266;10.410;2023-12-29T05:30:06;100165.91;;;5.57;100.00
10510;BME280;5303;53.266;10.410;2023-12-29T05:32:31;100171.19;;;5.68;100.00
10510;BME280;5303;53.266;10.410;2023-12-29T05:34:56;100159.88;;;5.72;100.00
10510;BME280;5303;53.266;10.410;2023-12-29T05:37:22;100147.69;;;5.75;100.00
10510;BME280;5303;53.266;10.410;2023-12-29T05:39:47;100142.47;;;5.72;100.00
10510;BME280;5303;53.266;10.410;2023-12-29T05:42:12;100131.13;;;5.79;100.00
10510;BME280;5303;53.266;10.410;2023-12-29T05:44:38;100120.66;;;5.73;100.00
10510;BME280;5303;53.266;10.410;2023-12-29T05:47:04;100122.41;;;5.77;100.00
10510;BME280;5303;53.266;10.410;2023-12-29T05:49:29;100134.63;;;5.75;100.00
10510;BME280;5303;53.266;10.410;2023-12-29T05:51:55;100124.13;;;5.72;100.00
10510;BME280;5303;53.266;10.410;2023-12-29T05:54:20;100126.75;;;5.74;100.00
10510;BME280;5303;53.266;10.410;2023-12-29T05:56:46;100129.34;;;5.71;100.00
10510;BME280;5303;53.266;10.410;2023-12-29T05:59:12;100147.69;;;5.72;100.00
10510;BME280;5303;53.266;10.410;2023-12-29T06:01:37;100153.81;;;5.81;100.00
10510;BME280;5303;53.266;10.410;2023-12-29T06:04:03;100129.38;;;5.78;100.00
10510;BME280;5303;53.266;10.410;2023-12-29T06:06:28;100129.38;;;5.72;100.00
10510;BME280;5303;53.266;10.410;2023-12-29T06:08:54;100123.22;;;5.72;100.00
10510;BME280;5303;53.266;10.410;2023-12-29T06:11:19;100115.38;;;5.64;100.00
10510;BME280;5303;53.266;10.410;2023-12-29T06:13:45;100112.75;;;5.63;100.00
10510;BME280;5303;53.266;10.410;2023-12-29T06:16:17;100145.88;;;5.62;100.00
10510;BME280;5303;53.266;10.410;2023-12-29T06:18:42;100122.34;;;5.71;100.00
10510;BME280;5303;53.266;10.410;2023-12-29T06:21:07;100110.13;;;5.67;100.00
10510;BME280;5303;53.266;10.410;2023-12-29T06:23:33;100109.25;;;5.67;100.00
10510;BME280;5303;53.266;10.410;2023-12-29T06:25:59;100093.56;;;5.65;100.00
10510;BME280;5303;53.266;10.410;2023-12-29T06:28:24;100108.38;;;5.63;100.00
10510;BME280;5303;53.266;10.410;2023-12-29T06:30:49;100098.78;;;5.65;100.00
10510;BME280;5303;53.266;10.410;2023-12-29T06:33:15;100111.00;;;5.63;100.00
10510;BME280;5303;53.266;10.410;2023-12-29T06:35:40;100103.16;;;5.68;100.00
10510;BME280;5303;53.266;10.410;2023-12-29T06:38:05;100094.44;;;5.70;100.00
10510;BME280;5303;53.266;10.410;2023-12-29T06:40:30;100094.50;;;5.79;100.00
10510;BME280;5303;53.266;10.410;2023-12-29T06:42:56;100087.56;;;5.88;100.00
10510;BME280;5303;53.266;10.410;2023-12-29T06:45:21;100098.06;;;5.91;100.00
10510;BME280;5303;53.266;10.410;2023-12-29T06:47:46;100081.53;;;5.98;100.00
10510;BME280;5303;53.266;10.410;2023-12-29T06:50:12;100094.69;;;6.22;100.00
10510;BME280;5303;53.266;10.410;2023-12-29T06:52:38;100092.09;;;6.31;100.00
10510;BME280;5303;53.266;10.410;2023-12-29T06:55:04;100110.47;;;6.38;100.00
10510;BME280;5303;53.266;10.410;2023-12-29T06:57:29;100117.50;;;6.57;100.00
10510;BME280;5303;53.266;10.410;2023-12-29T06:59:54;100101.78;;;6.72;100.00
10510;BME280;5303;53.266;10.410;2023-12-29T07:02:20;100111.44;;;6.96;100.00
10510;BME280;5303;53.266;10.410;2023-12-29T07:04:45;100100.03;;;7.12;100.00
10510;BME280;5303;53.266;10.410;2023-12-29T07:07:11;100100.06;;;7.15;100.00
10510;BME280;5303;53.266;10.410;2023-12-29T07:09:39;100104.41;;;7.27;100.00
10510;BME280;5303;53.266;10.410;2023-12-29T07:12:07;100104.44;;;7.26;100.00
10510;BME280;5303;53.266;10.410;2023-12-29T07:14:32;100103.50;;;7.34;100.00
10510;BME280;5303;53.266;10.410;2023-12-29T07:16:58;100098.25;;;7.34;100.00
10510;BME280;5303;53.266;10.410;2023-12-29T07:19:23;100098.28;;;7.40;100.00
10510;BME280;5303;53.266;10.410;2023-12-29T07:21:48;100112.22;;;7.55;100.00
10510;BME280;5303;53.266;10.410;2023-12-29T07:24:14;100093.00;;;7.59;100.00
10510;BME280;5303;53.266;10.410;2023-12-29T07:26:39;100105.22;;;7.69;100.00
10510;BME280;5303;53.266;10.410;2023-12-29T07:29:04;100109.53;;;7.80;100.00
10510;BME280;5303;53.266;10.410;2023-12-29T07:31:30;100102.56;;;7.70;100.00
10510;BME280;5303;53.266;10.410;2023-12-29T07:33:56;100104.34;;;7.67;100.00
10510;BME280;5303;53.266;10.410;2023-12-29T07:36:21;100104.31;;;7.73;100.00
10510;BME280;5303;53.266;10.410;2023-12-29T07:38:46;100113.06;;;7.70;100.00
10510;BME280;5303;53.266;10.410;2023-12-29T07:41:11;100114.81;;;7.73;100.00
10510;BME280;5303;53.266;10.410;2023-12-29T07:43:37;100110.44;;;7.76;100.00
10510;BME280;5303;53.266;10.410;2023-12-29T07:46:03;100111.31;;;7.65;100.00
10510;BME280;5303;53.266;10.410;2023-12-29T07:48:28;100099.09;;;7.62;100.00
10510;BME280;5303;53.266;10.410;2023-12-29T07:50:53;100106.09;;;7.60;100.00
10510;BME280;5303;53.266;10.410;2023-12-29T07:53:18;100101.72;;;7.64;100.00
10510;BME280;5303;53.266;10.410;2023-12-29T07:55:44;100103.47;;;7.59;100.00
10510;BME280;5303;53.266;10.410;2023-12-29T07:58:11;100112.22;;;7.64;100.00
10510;BME280;5303;53.266;10.410;2023-12-29T08:00:36;100111.34;;;7.60;100.00
10510;BME280;5303;53.266;10.410;2023-12-29T08:03:03;100114.84;;;7.64;100.00
10510;BME280;5303;53.266;10.410;2023-12-29T08:05:28;100112.22;;;7.64;100.00
10510;BME280;5303;53.266;10.410;2023-12-29T08:07:54;100115.72;;;7.69;100.00
10510;BME280;5303;53.266;10.410;2023-12-29T08:10:20;100113.03;;;7.75;100.00
10510;BME280;5303;53.266;10.410;2023-12-29T08:12:45;100117.41;;;7.76;100.00
10510;BME280;5303;53.266;10.410;2023-12-29T08:15:10;100110.41;;;7.81;100.00
10510;BME280;5303;53.266;10.410;2023-12-29T08:17:36;100098.16;;;7.82;100.00
10510;BME280;5303;53.266;10.410;2023-12-29T08:20:03;100099.06;;;7.73;100.00
10510;BME280;5303;53.266;10.410;2023-12-29T08:22:30;100087.66;;;7.80;100.00
10510;BME280;5303;53.266;10.410;2023-12-29T08:24:57;100092.91;;;7.88;100.00
10510;BME280;5303;53.266;10.410;2023-12-29T08:27:23;100088.50;;;7.85;100.00
10510;BME280;5303;53.266;10.410;2023-12-29T08:29:50;100098.16;;;7.85;100.00
10510;BME280;5303;53.266;10.410;2023-12-29T08:32:16;100104.28;;;7.80;100.00
10510;BME280;5303;53.266;10.410;2023-12-29T08:34:41;100092.94;;;7.74;100.00
10510;BME280;5303;53.266;10.410;2023-12-29T08:37:06;100088.53;;;7.80;100.00
10510;BME280;5303;53.266;10.410;2023-12-29T08:39:31;100097.31;;;7.79;100.00
10510;BME280;5303;53.266;10.410;2023-12-29T08:41:57;100103.41;;;7.83;100.00
10510;BME280;5303;53.266;10.410;2023-12-29T08:44:22;100108.63;;;7.86;100.00
10510;BME280;5303;53.266;10.410;2023-12-29T08:46:47;100106.00;;;7.86;100.00
10510;BME280;5303;53.266;10.410;2023-12-29T08:49:13;100099.91;;;7.84;100.00
10510;BME280;5303;53.266;10.410;2023-12-29T08:51:38;100092.03;;;7.81;100.00
10510;BME280;5303;53.266;10.410;2023-12-29T08:54:03;100094.66;;;7.81;100.00
10510;BME280;5303;53.266;10.410;2023-12-29T08:56:28;100094.69;;;7.76;100.00
10510;BME280;5303;53.266;10.410;2023-12-29T08:58:54;100099.03;;;7.82;100.00
10510;BME280;5303;53.266;10.410;2023-12-29T09:01:19;100099.00;;;7.90;100.00
10510;BME280;5303;53.266;10.410;2023-12-29T09:03:45;100106.00;;;7.94;100.00
10510;BME280;5303;53.266;10.410;2023-12-29T09:06:10;100095.47;;;7.95;100.00
10510;BME280;5303;53.266;10.410;2023-12-29T09:08:36;100096.31;;;8.05;100.00
10510;BME280;5303;53.266;10.410;2023-12-29T09:11:01;100099.78;;;8.13;100.00
10510;BME280;5303;53.266;10.410;2023-12-29T09:13:27;100105.94;;;8.11;100.00
10510;BME280;5303;53.266;10.410;2023-12-29T09:15:54;100097.13;;;8.21;100.00
10510;BME280;5303;53.266;10.410;2023-12-29T09:18:19;100100.63;;;8.21;100.00
10510;BME280;5303;53.266;10.410;2023-12-29T09:20:45;100092.75;;;8.20;100.00
10510;BME280;5303;53.266;10.410;2023-12-29T09:23:10;100097.09;;;8.28;100.00
10510;BME280;5303;53.266;10.410;2023-12-29T09:25:36;100096.22;;;8.28;100.00
10510;BME280;5303;53.266;10.410;2023-12-29T09:28:01;100103.25;;;8.23;100.00
10510;BME280;5303;53.266;10.410;2023-12-29T09:30:26;100099.72;;;8.24;100.00
10510;BME280;5303;53.266;10.410;2023-12-29T09:32:51;100100.56;;;8.33;100.00
10510;BME280;5303;53.266;10.410;2023-12-29T09:35:17;100106.69;;;8.37;100.00
10510;BME280;5303;53.266;10.410;2023-12-29T09:37:43;100106.69;;;8.37;100.00
10510;BME280;5303;53.266;10.410;2023-12-29T09:40:10;100113.72;;;8.40;100.00
10510;BME280;5303;53.266;10.410;2023-12-29T09:42:37;100102.31;;;8.37;100.00
10510;BME280;5303;53.266;10.410;2023-12-29T09:45:07;100105.78;;;8.46;100.00
10510;BME280;5303;53.266;10.410;2023-12-29T09:47:34;100116.31;;;8.41;100.00
10510;BME280;5303;53.266;10.410;2023-12-29T09:50:04;100133.81;;;8.44;100.00
10510;BME280;5303;53.266;10.410;2023-12-29T09:52:30;100124.19;;;8.44;100.00
10510;BME280;5303;53.266;10.410;2023-12-29T09:54:55;100141.69;;;8.47;100.00
10510;BME280;5303;53.266;10.410;2023-12-29T09:57:21;100150.47;;;8.44;100.00
10510;BME280;5303;53.266;10.410;2023-12-29T09:59:49;100103.22;;;8.29;100.00
10510;BME280;5303;53.266;10.410;2023-12-29T10:02:17;100126.91;;;8.17;100.00
10510;BME280;5303;53.266;10.410;2023-12-29T10:04:42;100128.72;;;8.01;100.00
10510;BME280;5303;53.266;10.410;2023-12-29T10:07:11;100139.28;;;7.87;100.00
10510;BME280;5303;53.266;10.410;2023-12-29T10:09:39;100144.56;;;7.75;100.00
10510;BME280;5303;53.266;10.410;2023-12-29T10:12:09;100145.44;;;7.77;100.00
10510;BME280;5303;53.266;10.410;2023-12-29T10:14:48;100151.59;;;7.64;100.00
10510;BME280;5303;53.266;10.410;2023-12-29T10:17:30;100141.09;;;7.53;100.00
10510;BME280;5303;53.266;10.410;2023-12-29T10:20:15;100157.75;;;7.57;100.00
10510;BME280;5303;53.266;10.410;2023-12-29T10:25:14;100165.59;;;7.60;100.00
10510;BME280;5303;53.266;10.410;2023-12-29T10:27:40;100157.72;;;7.54;100.00
10510;BME280;5303;53.266;10.410;2023-12-29T10:30:09;100156.88;;;7.58;100.00
10510;BME280;5303;53.266;10.410;2023-12-29T10:32:36;100155.09;;;7.58;100.00
10510;BME280;5303;53.266;10.410;2023-12-29T10:35:08;100147.22;;;7.54;100.00
10510;BME280;5303;53.266;10.410;2023-12-29T10:37:37;100135.84;;;7.53;100.00
10510;BME280;5303;53.266;10.410;2023-12-29T10:40:03;100149.00;;;7.48;100.00
10510;BME280;5303;53.266;10.410;2023-12-29T10:42:29;100144.63;;;7.50;100.00
10510;BME280;5303;53.266;10.410;2023-12-29T10:45:08;100143.75;;;7.50;100.00
10510;BME280;5303;53.266;10.410;2023-12-29T10:47:34;100133.25;;;7.51;100.00
10510;BME280;5303;53.266;10.410;2023-12-29T10:50:03;100137.63;;;7.51;100.00
10510;BME280;5303;53.266;10.410;2023-12-29T10:52:29;100133.22;;;7.59;100.00
10510;BME280;5303;53.266;10.410;2023-12-29T10:55:15;100127.09;;;7.66;100.00
10510;BME280;5303;53.266;10.410;2023-12-29T10:57:40;100120.97;;;7.61;100.00
10510;BME280;5303;53.266;10.410;2023-12-29T11:00:07;100129.69;;;7.72;100.00
10510;BME280;5303;53.266;10.410;2023-12-29T11:02:34;100124.44;;;7.71;100.00
10510;BME280;5303;53.266;10.410;2023-12-29T11:05:06;100115.72;;;7.63;100.00
10510;BME280;5303;53.266;10.410;2023-12-29T11:07:39;100127.06;;;7.74;100.00
10510;BME280;5303;53.266;10.410;2023-12-29T11:10:06;100130.59;;;7.64;100.00
10510;BME280;5303;53.266;10.410;2023-12-29T11:12:34;100122.72;;;7.70;100.00
10510;BME280;5303;53.266;10.410;2023-12-29T11:15:04;100116.56;;;7.72;100.00
10510;BME280;5303;53.266;10.410;2023-12-29T11:17:32;100121.78;;;7.85;100.00
10510;BME280;5303;53.266;10.410;2023-12-29T11:19:59;100113.06;;;7.72;100.00
10510;BME280;5303;53.266;10.410;2023-12-29T11:22:27;100115.69;;;7.66;100.00
10510;BME280;5303;53.266;10.410;2023-12-29T11:24:53;100128.84;;;7.67;100.00
10510;BME280;5303;53.266;10.410;2023-12-29T11:27:19;100134.06;;;7.76;100.00
10510;BME280;5303;53.266;10.410;2023-12-29T11:29:45;100127.94;;;7.73;100.00
10510;BME280;5303;53.266;10.410;2023-12-29T11:32:16;100136.69;;;7.72;100.00
10510;BME280;5303;53.266;10.410;2023-12-29T11:34:54;100128.81;;;7.81;100.00
10510;BME280;5303;53.266;10.410;2023-12-29T11:37:28;100142.81;;;7.78;100.00
10510;BME280;5303;53.266;10.410;2023-12-29T11:42:38;100136.66;;;7.86;100.00
10510;BME280;5303;53.266;10.410;2023-12-29T11:45:24;100137.56;;;7.80;100.00
10510;BME280;5303;53.266;10.410;2023-12-29T11:47:53;100134.03;;;7.86;100.00
10510;BME280;5303;53.266;10.410;2023-12-29T11:50:32;100131.38;;;7.93;100.00
10510;BME280;5303;53.266;10.410;2023-12-29T11:52:59;100122.66;;;7.88;100.00
10510;BME280;5303;53.266;10.410;2023-12-29T11:55:29;100119.16;;;7.89;100.00
10510;BME280;5303;53.266;10.410;2023-12-29T11:57:56;100114.78;;;7.85;100.00
10510;BME280;5303;53.266;10.410;2023-12-29T12:00:40;100122.69;;;7.79;100.00
10510;BME280;5303;53.266;10.410;2023-12-29T12:03:32;100107.78;;;7.81;100.00
10510;BME280;5303;53.266;10.410;2023-12-29T12:05:58;100102.53;;;7.84;100.00
10510;BME280;5303;53.266;10.410;2023-12-29T12:08:27;100103.34;;;7.95;100.00
10510;BME280;5303;53.266;10.410;2023-12-29T12:10:54;100092.91;;;7.83;100.00
10510;BME280;5303;53.266;10.410;2023-12-29T12:13:46;100085.94;;;7.73;100.00
10510;BME280;5303;53.266;10.410;2023-12-29T12:17:04;100078.06;;;7.79;100.00
10510;BME280;5303;53.266;10.410;2023-12-29T12:19:24;100064.94;;;7.73;100.00
10510;BME280;5303;53.266;10.410;2023-12-29T12:21:53;100078.97;;;7.60;100.00
10510;BME280;5303;53.266;10.410;2023-12-29T12:24:20;100075.47;;;7.67;100.00
10510;BME280;5303;53.266;10.410;2023-12-29T12:26:45;100075.47;;;7.64;100.00
10510;BME280;5303;53.266;10.410;2023-12-29T12:29:13;100073.75;;;7.57;100.00
10510;BME280;5303;53.266;10.410;2023-12-29T12:31:51;100082.50;;;7.57;100.00
10510;BME280;5303;53.266;10.410;2023-12-29T12:34:16;100085.97;;;7.61;100.00
10510;BME280;5303;53.266;10.410;2023-12-29T12:36:49;100081.59;;;7.69;100.00
10510;BME280;5303;53.266;10.410;2023-12-29T12:39:15;100088.59;;;7.68;100.00
10510;BME280;5303;53.266;10.410;2023-12-29T12:41:41;100085.94;;;7.79;100.00
10510;BME280;5303;53.266;10.410;2023-12-29T12:44:15;100082.44;;;7.74;100.00
10510;BME280;5303;53.266;10.410;2023-12-29T12:49:12;100096.44;;;7.70;100.00
10510;BME280;5303;53.266;10.410;2023-12-29T12:51:38;100073.69;;;7.70;100.00
10510;BME280;5303;53.266;10.410;2023-12-29T12:54:03;100058.84;;;7.68;100.00
10510;BME280;5303;53.266;10.410;2023-12-29T12:56:30;100058.81;;;7.71;100.00
10510;BME280;5303;53.266;10.410;2023-12-29T12:58:56;100052.69;;;7.64;100.00